sensor_id;sensor_type;location;lat;lon;timestamp;temperature;humidity
15115;DHT22;7658;51.456;7.622;2023-08-07T00:00:41;12.50;99.90
15115;DHT22;7658;51.456;7.622;2023-08-07T00:03:07;12.50;99.90
15115;DHT22;7658;51.456;7.622;2023-08-07T00:05:33;12.50;99.90
15115;DHT22;7658;51.456;7.622;2023-08-07T00:07:58;12.50;99.90
15115;DHT22;7658;51.456;7.622;2023-08-07T00:10:24;12.50;99.90
15115;DHT22;7658;51.456;7.622;2023-08-07T00:12:50;12.40;99.90
15115;DHT22;7658;51.456;7.622;2023-08-07T00:15:16;12.50;99.90
15115;DHT22;7658;51.456;7.622;2023-08-07T00:17:41;12.50;99.90
15115;DHT22;7658;51.456;7.622;2023-08-07T00:20:08;12.40;99.90
15115;DHT22;7658;51.456;7.622;2023-08-07T00:22:34;12.40;99.90
15115;DHT22;7658;51.456;7.622;2023-08-07T00:24:59;12.40;99.90
15115;DHT22;7658;51.456;7.622;2023-08-07T00:27:25;12.40;99.90
15115;DHT22;7658;51.456;7.622;2023-08-07T00:29:51;12.50;99.90
15115;DHT22;7658;51.456;7.622;2023-08-07T00:32:17;12.40;99.90
15115;DHT22;7658;51.456;7.622;2023-08-07T00:34:43;12.50;99.90
15115;DHT22;7658;51.456;7.622;2023-08-07T00:37:09;12.40;99.90
15115;DHT22;7658;51.456;7.622;2023-08-07T00:39:34;12.50;99.90
15115;DHT22;7658;51.456;7.622;2023-08-07T00:42:00;12.50;99.90
15115;DHT22;7658;51.456;7.622;2023-08-07T00:44:26;12.50;99.90
15115;DHT22;7658;51.456;7.622;2023-08-07T00:46:52;12.50;99.90
15115;DHT22;7658;51.456;7.622;2023-08-07T00:49:19;12.50;99.90
15115;DHT22;7658;51.456;7.622;2023-08-07T00:51:45;12.50;99.90
15115;DHT22;7658;51.456;7.622;2023-08-07T00:54:13;12.50;99.90
15115;DHT22;7658;51.456;7.622;2023-08-07T00:56:39;12.50;99.90
15115;DHT22;7658;51.456;7.622;2023-08-07T00:59:05;12.50;99.90
15115;DHT22;7658;51.456;7.622;2023-08-07T01:01:32;12.50;99.90
15115;DHT22;7658;51.456;7.622;2023-08-07T01:03:58;12.60;99.90
15115;DHT22;7658;51.456;7.622;2023-08-07T01:06:24;12.60;99.90
15115;DHT22;7658;51.456;7.622;2023-08-07T01:08:50;12.60;99.90
15115;DHT22;7658;51.456;7.622;2023-08-07T01:11:23;12.60;99.90
15115;DHT22;7658;51.456;7.622;2023-08-07T01:14:00;12.60;99.90
15115;DHT22;7658;51.456;7.622;2023-08-07T01:16:35;12.70;99.90
15115;DHT22;7658;51.456;7.622;2023-08-07T01:19:03;12.70;99.90
15115;DHT22;7658;51.456;7.622;2023-08-07T01:21:32;12.70;99.90
15115;DHT22;7658;51.456;7.622;2023-08-07T01:23:58;12.70;99.90
15115;DHT22;7658;51.456;7.622;2023-08-07T01:26:24;12.70;99.90
15115;DHT22;7658;51.456;7.622;2023-08-07T01:29:00;12.60;99.90
15115;DHT22;7658;51.456;7.622;2023-08-07T01:31:33;12.60;99.90
15115;DHT22;7658;51.456;7.622;2023-08-07T01:34:04;12.70;99.90
15115;DHT22;7658;51.456;7.622;2023-08-07T01:36:32;12.60;99.90
15115;DHT22;7658;51.456;7.622;2023-08-07T01:39:00;12.60;99.90
15115;DHT22;7658;51.456;7.622;2023-08-07T01:41:27;12.60;99.90
15115;DHT22;7658;51.456;7.622;2023-08-07T01:43:54;12.60;99.90
15115;DHT22;7658;51.456;7.622;2023-08-07T01:46:20;12.60;99.90
15115;DHT22;7658;51.456;7.622;2023-08-07T01:48:46;12.60;99.90
15115;DHT22;7658;51.456;7.622;2023-08-07T01:51:12;12.60;99.90
15115;DHT22;7658;51.456;7.622;2023-08-07T01:53:38;12.60;99.90
15115;DHT22;7658;51.456;7.622;2023-08-07T01:56:03;12.60;99.90
15115;DHT22;7658;51.456;7.622;2023-08-07T01:58:29;12.60;99.90
15115;DHT22;7658;51.456;7.622;2023-08-07T02:00:55;12.50;99.90
15115;DHT22;7658;51.456;7.622;2023-08-07T02:03:21;12.60;99.90
15115;DHT22;7658;51.456;7.622;2023-08-07T02:05:47;12.50;99.90
15115;DHT22;7658;51.456;7.622;2023-08-07T02:08:13;12.50;99.90
15115;DHT22;7658;51.456;7.622;2023-08-07T02:10:38;12.50;99.90
15115;DHT22;7658;51.456;7.622;2023-08-07T02:13:04;12.50;99.90
15115;DHT22;7658;51.456;7.622;2023-08-07T02:15:30;12.50;99.90
15115;DHT22;7658;51.456;7.622;2023-08-07T02:17:55;12.40;99.90
15115;DHT22;7658;51.456;7.622;2023-08-07T02:20:21;12.40;99.90
15115;DHT22;7658;51.456;7.622;2023-08-07T02:22:47;12.40;99.90
15115;DHT22;7658;51.456;7.622;2023-08-07T02:25:13;12.40;99.90
15115;DHT22;7658;51.456;7.622;2023-08-07T02:27:39;12.40;99.90
15115;DHT22;7658;51.456;7.622;2023-08-07T02:30:05;12.40;99.90
15115;DHT22;7658;51.456;7.622;2023-08-07T02:32:31;12.40;99.90
15115;DHT22;7658;51.456;7.622;2023-08-07T02:34:57;12.40;99.90
15115;DHT22;7658;51.456;7.622;2023-08-07T02:37:23;12.40;99.90
15115;DHT22;7658;51.456;7.622;2023-08-07T02:39:49;12.30;99.90
15115;DHT22;7658;51.456;7.622;2023-08-07T02:42:15;12.40;99.90
15115;DHT22;7658;51.456;7.622;2023-08-07T02:44:41;12.30;99.90
15115;DHT22;7658;51.456;7.622;2023-08-07T02:47:06;12.30;99.90
15115;DHT22;7658;51.456;7.622;2023-08-07T02:49:32;12.30;99.90
15115;DHT22;7658;51.456;7.622;2023-08-07T02:51:58;12.30;99.90
15115;DHT22;7658;51.456;7.622;2023-08-07T02:54:24;12.30;99.90
15115;DHT22;7658;51.456;7.622;2023-08-07T02:56:50;12.40;99.90
15115;DHT22;7658;51.456;7.622;2023-08-07T02:59:16;12.40;99.90
15115;DHT22;7658;51.456;7.622;2023-08-07T03:01:43;12.30;99.90
15115;DHT22;7658;51.456;7.622;2023-08-07T03:04:09;12.30;99.90
15115;DHT22;7658;51.456;7.622;2023-08-07T03:06:35;12.30;99.90
15115;DHT22;7658;51.456;7.622;2023-08-07T03:09:01;12.30;99.90
15115;DHT22;7658;51.456;7.622;2023-08-07T03:11:26;12.30;99.90
15115;DHT22;7658;51.456;7.622;2023-08-07T03:13:52;12.40;99.90
15115;DHT22;7658;51.456;7.622;2023-08-07T03:16:18;12.40;99.90
15115;DHT22;7658;51.456;7.622;2023-08-07T03:18:44;12.40;99.90
15115;DHT22;7658;51.456;7.622;2023-08-07T03:21:09;12.40;99.90
15115;DHT22;7658;51.456;7.622;2023-08-07T03:23:35;12.40;99.90
15115;DHT22;7658;51.456;7.622;2023-08-07T03:26:06;12.40;99.90
15115;DHT22;7658;51.456;7.622;2023-08-07T03:28:33;12.40;99.90
15115;DHT22;7658;51.456;7.622;2023-08-07T03:30:59;12.40;99.90
15115;DHT22;7658;51.456;7.622;2023-08-07T03:33:25;12.40;99.90
15115;DHT22;7658;51.456;7.622;2023-08-07T03:35:51;12.40;99.90
15115;DHT22;7658;51.456;7.622;2023-08-07T03:38:16;12.50;99.90
15115;DHT22;7658;51.456;7.622;2023-08-07T03:40:42;12.50;99.90
15115;DHT22;7658;51.456;7.622;2023-08-07T03:43:08;12.40;99.90
15115;DHT22;7658;51.456;7.622;2023-08-07T03:45:34;12.50;99.90
15115;DHT22;7658;51.456;7.622;2023-08-07T03:47:59;12.40;99.90
15115;DHT22;7658;51.456;7.622;2023-08-07T03:50:25;12.40;99.90
15115;DHT22;7658;51.456;7.622;2023-08-07T03:52:51;12.50;99.90
15115;DHT22;7658;51.456;7.622;2023-08-07T03:55:16;12.50;99.90
15115;DHT22;7658;51.456;7.622;2023-08-07T03:57:44;12.50;99.90
15115;DHT22;7658;51.456;7.622;2023-08-07T04:00:10;12.50;99.90
15115;DHT22;7658;51.456;7.622;2023-08-07T04:02:36;12.50;99.90
15115;DHT22;7658;51.456;7.622;2023-08-07T04:05:02;12.50;99.90
15115;DHT22;7658;51.456;7.622;2023-08-07T04:07:28;12.50;99.90
15115;DHT22;7658;51.456;7.622;2023-08-07T04:09:53;12.40;99.90
15115;DHT22;7658;51.456;7.622;2023-08-07T04:12:19;12.50;99.90
15115;DHT22;7658;51.456;7.622;2023-08-07T04:14:45;12.50;99.90
15115;DHT22;7658;51.456;7.622;2023-08-07T04:17:11;12.50;99.90
15115;DHT22;7658;51.456;7.622;2023-08-07T04:19:37;12.40;99.90
15115;DHT22;7658;51.456;7.622;2023-08-07T04:22:03;12.40;99.90
15115;DHT22;7658;51.456;7.622;2023-08-07T04:24:29;12.50;99.90
15115;DHT22;7658;51.456;7.622;2023-08-07T04:26:54;12.40;99.90
15115;DHT22;7658;51.456;7.622;2023-08-07T04:29:20;12.40;99.90
15115;DHT22;7658;51.456;7.622;2023-08-07T04:31:46;12.50;99.90
15115;DHT22;7658;51.456;7.622;2023-08-07T04:34:11;12.40;99.90
15115;DHT22;7658;51.456;7.622;2023-08-07T04:36:38;12.40;99.90
15115;DHT22;7658;51.456;7.622;2023-08-07T04:39:03;12.50;99.90
15115;DHT22;7658;51.456;7.622;2023-08-07T04:41:29;12.40;99.90
15115;DHT22;7658;51.456;7.622;2023-08-07T04:43:55;12.40;99.90
15115;DHT22;7658;51.456;7.622;2023-08-07T04:46:21;12.40;99.90
15115;DHT22;7658;51.456;7.622;2023-08-07T04:48:46;12.50;99.90
15115;DHT22;7658;51.456;7.622;2023-08-07T04:51:13;12.50;99.90
15115;DHT22;7658;51.456;7.622;2023-08-07T04:53:39;12.50;99.90
15115;DHT22;7658;51.456;7.622;2023-08-07T04:56:04;12.40;99.90
15115;DHT22;7658;51.456;7.622;2023-08-07T04:58:30;12.40;99.90
15115;DHT22;7658;51.456;7.622;2023-08-07T05:00:56;12.40;99.90
15115;DHT22;7658;51.456;7.622;2023-08-07T05:03:23;12.50;99.90
15115;DHT22;7658;51.456;7.622;2023-08-07T05:05:49;12.50;99.90
15115;DHT22;7658;51.456;7.622;2023-08-07T05:08:16;12.50;99.90
15115;DHT22;7658;51.456;7.622;2023-08-07T05:10:42;12.40;99.90
15115;DHT22;7658;51.456;7.622;2023-08-07T05:13:07;12.40;99.90
15115;DHT22;7658;51.456;7.622;2023-08-07T05:15:33;12.40;99.90
15115;DHT22;7658;51.456;7.622;2023-08-07T05:17:59;12.50;99.90
15115;DHT22;7658;51.456;7.622;2023-08-07T05:20:25;12.40;99.90
15115;DHT22;7658;51.456;7.622;2023-08-07T05:22:51;12.50;99.90
15115;DHT22;7658;51.456;7.622;2023-08-07T05:25:17;12.40;99.90
15115;DHT22;7658;51.456;7.622;2023-08-07T05:27:44;12.50;99.90
15115;DHT22;7658;51.456;7.622;2023-08-07T05:30:11;12.40;99.90
15115;DHT22;7658;51.456;7.622;2023-08-07T05:32:37;12.40;99.90
15115;DHT22;7658;51.456;7.622;2023-08-07T05:35:05;12.50;99.90
15115;DHT22;7658;51.456;7.622;2023-08-07T05:37:30;12.50;99.90
15115;DHT22;7658;51.456;7.622;2023-08-07T05:39:57;12.50;99.90
15115;DHT22;7658;51.456;7.622;2023-08-07T05:42:23;12.40;99.90
15115;DHT22;7658;51.456;7.622;2023-08-07T05:44:49;12.40;99.90
15115;DHT22;7658;51.456;7.622;2023-08-07T05:47:14;12.30;99.90
15115;DHT22;7658;51.456;7.622;2023-08-07T05:49:40;12.30;99.90
15115;DHT22;7658;51.456;7.622;2023-08-07T05:52:06;12.40;99.90
15115;DHT22;7658;51.456;7.622;2023-08-07T05:54:32;12.40;99.90
15115;DHT22;7658;51.456;7.622;2023-08-07T05:56:58;12.40;99.90
15115;DHT22;7658;51.456;7.622;2023-08-07T05:59:24;12.30;99.90
15115;DHT22;7658;51.456;7.622;2023-08-07T06:01:50;12.30;99.90
15115;DHT22;7658;51.456;7.622;2023-08-07T06:04:16;12.30;99.90
15115;DHT22;7658;51.456;7.622;2023-08-07T06:06:42;12.30;99.90
15115;DHT22;7658;51.456;7.622;2023-08-07T06:09:08;12.40;99.90
15115;DHT22;7658;51.456;7.622;2023-08-07T06:11:34;12.30;99.90
15115;DHT22;7658;51.456;7.622;2023-08-07T06:14:01;12.30;99.90
15115;DHT22;7658;51.456;7.622;2023-08-07T06:16:26;12.30;99.90
15115;DHT22;7658;51.456;7.622;2023-08-07T06:18:53;12.30;99.90
15115;DHT22;7658;51.456;7.622;2023-08-07T06:21:19;12.20;99.90
15115;DHT22;7658;51.456;7.622;2023-08-07T06:23:46;12.20;99.90
15115;DHT22;7658;51.456;7.622;2023-08-07T06:26:12;12.20;99.90
15115;DHT22;7658;51.456;7.622;2023-08-07T06:28:38;12.20;99.90
15115;DHT22;7658;51.456;7.622;2023-08-07T06:31:09;12.20;99.90
15115;DHT22;7658;51.456;7.622;2023-08-07T06:33:35;12.30;99.90
15115;DHT22;7658;51.456;7.622;2023-08-07T06:36:02;12.20;99.90
15115;DHT22;7658;51.456;7.622;2023-08-07T06:38:29;12.30;99.90
15115;DHT22;7658;51.456;7.622;2023-08-07T06:40:54;12.30;99.90
15115;DHT22;7658;51.456;7.622;2023-08-07T06:43:20;12.30;99.90
15115;DHT22;7658;51.456;7.622;2023-08-07T06:45:50;12.30;99.90
15115;DHT22;7658;51.456;7.622;2023-08-07T06:48:16;12.30;99.90
15115;DHT22;7658;51.456;7.622;2023-08-07T06:50:41;12.30;99.90
15115;DHT22;7658;51.456;7.622;2023-08-07T06:53:07;12.30;99.90
15115;DHT22;7658;51.456;7.622;2023-08-07T06:55:33;12.30;99.90
15115;DHT22;7658;51.456;7.622;2023-08-07T06:57:59;12.30;99.90
15115;DHT22;7658;51.456;7.622;2023-08-07T07:00:25;12.30;99.90
15115;DHT22;7658;51.456;7.622;2023-08-07T07:02:51;12.30;99.90
15115;DHT22;7658;51.456;7.622;2023-08-07T07:05:17;12.30;99.90
15115;DHT22;7658;51.456;7.622;2023-08-07T07:07:42;12.40;99.90
15115;DHT22;7658;51.456;7.622;2023-08-07T07:10:08;12.40;99.90
15115;DHT22;7658;51.456;7.622;2023-08-07T07:12:34;12.40;99.90
15115;DHT22;7658;51.456;7.622;2023-08-07T07:15:00;12.50;99.90
15115;DHT22;7658;51.456;7.622;2023-08-07T07:17:26;12.50;99.90
15115;DHT22;7658;51.456;7.622;2023-08-07T07:19:52;12.50;99.90
15115;DHT22;7658;51.456;7.622;2023-08-07T07:22:18;12.50;99.90
15115;DHT22;7658;51.456;7.622;2023-08-07T07:24:43;12.50;99.90
15115;DHT22;7658;51.456;7.622;2023-08-07T07:27:09;12.60;99.90
15115;DHT22;7658;51.456;7.622;2023-08-07T07:29:35;12.60;99.90
15115;DHT22;7658;51.456;7.622;2023-08-07T07:32:01;12.60;99.90
15115;DHT22;7658;51.456;7.622;2023-08-07T07:34:29;12.70;99.90
15115;DHT22;7658;51.456;7.622;2023-08-07T07:36:58;12.70;99.90
15115;DHT22;7658;51.456;7.622;2023-08-07T07:39:24;12.70;99.90
15115;DHT22;7658;51.456;7.622;2023-08-07T07:41:50;12.70;99.90
15115;DHT22;7658;51.456;7.622;2023-08-07T07:44:15;12.70;99.90
15115;DHT22;7658;51.456;7.622;2023-08-07T07:46:42;12.80;99.90
15115;DHT22;7658;51.456;7.622;2023-08-07T07:49:10;12.80;99.90
15115;DHT22;7658;51.456;7.622;2023-08-07T07:51:36;12.80;99.90
15115;DHT22;7658;51.456;7.622;2023-08-07T07:54:03;12.80;99.90
15115;DHT22;7658;51.456;7.622;2023-08-07T07:56:28;12.90;99.90
15115;DHT22;7658;51.456;7.622;2023-08-07T07:58:54;12.90;99.90
15115;DHT22;7658;51.456;7.622;2023-08-07T08:01:20;12.90;99.90
15115;DHT22;7658;51.456;7.622;2023-08-07T08:03:46;12.90;99.90
15115;DHT22;7658;51.456;7.622;2023-08-07T08:06:12;12.90;99.90
15115;DHT22;7658;51.456;7.622;2023-08-07T08:08:39;12.90;99.90
15115;DHT22;7658;51.456;7.622;2023-08-07T08:11:05;12.90;99.90
15115;DHT22;7658;51.456;7.622;2023-08-07T08:13:30;12.90;99.90
15115;DHT22;7658;51.456;7.622;2023-08-07T08:15:56;13.00;99.90
15115;DHT22;7658;51.456;7.622;2023-08-07T08:18:22;13.10;99.90
15115;DHT22;7658;51.456;7.622;2023-08-07T08:20:47;13.00;99.90
15115;DHT22;7658;51.456;7.622;2023-08-07T08:23:13;13.10;99.90
15115;DHT22;7658;51.456;7.622;2023-08-07T08:25:39;13.00;99.90
15115;DHT22;7658;51.456;7.622;2023-08-07T08:28:05;13.10;99.90
15115;DHT22;7658;51.456;7.622;2023-08-07T08:30:31;13.10;99.90
15115;DHT22;7658;51.456;7.622;2023-08-07T08:32:56;13.10;99.90
15115;DHT22;7658;51.456;7.622;2023-08-07T08:35:22;13.10;99.90
15115;DHT22;7658;51.456;7.622;2023-08-07T08:37:48;13.10;99.90
15115;DHT22;7658;51.456;7.622;2023-08-07T08:40:14;13.20;99.90
15115;DHT22;7658;51.456;7.622;2023-08-07T08:42:44;13.20;99.90
15115;DHT22;7658;51.456;7.622;2023-08-07T08:45:14;13.20;99.90
15115;DHT22;7658;51.456;7.622;2023-08-07T08:47:41;13.20;99.90
15115;DHT22;7658;51.456;7.622;2023-08-07T08:50:10;13.30;99.90
15115;DHT22;7658;51.456;7.622;2023-08-07T08:52:42;13.30;99.90
15115;DHT22;7658;51.456;7.622;2023-08-07T08:55:09;13.40;99.90
15115;DHT22;7658;51.456;7.622;2023-08-07T08:57:37;13.40;99.90
15115;DHT22;7658;51.456;7.622;2023-08-07T09:00:07;13.40;99.90
15115;DHT22;7658;51.456;7.622;2023-08-07T09:02:45;13.50;99.90
15115;DHT22;7658;51.456;7.622;2023-08-07T09:05:10;13.60;99.90
15115;DHT22;7658;51.456;7.622;2023-08-07T09:07:37;13.70;99.90
15115;DHT22;7658;51.456;7.622;2023-08-07T09:10:03;13.70;99.90
15115;DHT22;7658;51.456;7.622;2023-08-07T09:12:32;13.70;99.90
15115;DHT22;7658;51.456;7.622;2023-08-07T09:14:58;13.80;99.90
15115;DHT22;7658;51.456;7.622;2023-08-07T09:17:28;13.80;99.90
15115;DHT22;7658;51.456;7.622;2023-08-07T09:19:55;13.90;99.90
15115;DHT22;7658;51.456;7.622;2023-08-07T09:22:21;13.90;99.90
15115;DHT22;7658;51.456;7.622;2023-08-07T09:24:47;13.80;99.90
15115;DHT22;7658;51.456;7.622;2023-08-07T09:27:13;13.80;99.90
15115;DHT22;7658;51.456;7.622;2023-08-07T09:29:46;13.70;99.90
15115;DHT22;7658;51.456;7.622;2023-08-07T09:32:13;13.70;99.90
15115;DHT22;7658;51.456;7.622;2023-08-07T09:34:42;13.80;99.90
15115;DHT22;7658;51.456;7.622;2023-08-07T09:37:08;13.80;99.90
15115;DHT22;7658;51.456;7.622;2023-08-07T09:39:37;13.90;99.90
15115;DHT22;7658;51.456;7.622;2023-08-07T09:42:04;14.00;99.90
15115;DHT22;7658;51.456;7.622;2023-08-07T09:44:38;14.20;99.90
15115;DHT22;7658;51.456;7.622;2023-08-07T09:47:16;14.20;99.90
15115;DHT22;7658;51.456;7.622;2023-08-07T09:49:43;14.30;99.90
15115;DHT22;7658;51.456;7.622;2023-08-07T09:52:12;14.40;99.90
15115;DHT22;7658;51.456;7.622;2023-08-07T09:54:43;14.50;99.90
15115;DHT22;7658;51.456;7.622;2023-08-07T09:57:09;14.50;99.90
15115;DHT22;7658;51.456;7.622;2023-08-07T09:59:35;14.50;99.90
15115;DHT22;7658;51.456;7.622;2023-08-07T10:02:02;14.50;99.90
15115;DHT22;7658;51.456;7.622;2023-08-07T10:04:28;14.70;99.90
15115;DHT22;7658;51.456;7.622;2023-08-07T10:06:54;14.80;99.90
15115;DHT22;7658;51.456;7.622;2023-08-07T10:09:21;14.90;99.90
15115;DHT22;7658;51.456;7.622;2023-08-07T10:11:48;14.70;99.90
15115;DHT22;7658;51.456;7.622;2023-08-07T10:14:14;14.60;99.90
15115;DHT22;7658;51.456;7.622;2023-08-07T10:16:41;14.90;99.90
15115;DHT22;7658;51.456;7.622;2023-08-07T10:19:10;15.20;99.90
15115;DHT22;7658;51.456;7.622;2023-08-07T10:21:38;15.60;99.90
15115;DHT22;7658;51.456;7.622;2023-08-07T10:24:05;15.60;99.90
15115;DHT22;7658;51.456;7.622;2023-08-07T10:26:36;15.60;99.90
15115;DHT22;7658;51.456;7.622;2023-08-07T10:29:05;15.50;99.90
15115;DHT22;7658;51.456;7.622;2023-08-07T10:31:32;15.50;99.90
15115;DHT22;7658;51.456;7.622;2023-08-07T10:33:59;15.50;99.90
15115;DHT22;7658;51.456;7.622;2023-08-07T10:36:33;15.50;99.90
15115;DHT22;7658;51.456;7.622;2023-08-07T10:39:15;15.30;99.90
15115;DHT22;7658;51.456;7.622;2023-08-07T10:41:45;15.10;99.90
15115;DHT22;7658;51.456;7.622;2023-08-07T10:44:25;14.90;99.90
15115;DHT22;7658;51.456;7.622;2023-08-07T10:47:01;14.90;99.90
15115;DHT22;7658;51.456;7.622;2023-08-07T10:49:38;14.80;99.90
15115;DHT22;7658;51.456;7.622;2023-08-07T10:52:20;14.90;99.90
15115;DHT22;7658;51.456;7.622;2023-08-07T10:54:57;15.10;99.90
15115;DHT22;7658;51.456;7.622;2023-08-07T10:57:35;15.30;99.90
15115;DHT22;7658;51.456;7.622;2023-08-07T11:00:07;15.40;99.90
15115;DHT22;7658;51.456;7.622;2023-08-07T11:02:37;15.50;99.90
15115;DHT22;7658;51.456;7.622;2023-08-07T11:05:06;15.60;99.90
15115;DHT22;7658;51.456;7.622;2023-08-07T11:07:40;15.70;99.90
15115;DHT22;7658;51.456;7.622;2023-08-07T11:10:06;15.90;99.90
15115;DHT22;7658;51.456;7.622;2023-08-07T11:12:32;16.20;99.90
15115;DHT22;7658;51.456;7.622;2023-08-07T11:14:58;16.40;99.90
15115;DHT22;7658;51.456;7.622;2023-08-07T11:17:25;16.50;99.90
15115;DHT22;7658;51.456;7.622;2023-08-07T11:19:51;16.60;99.90
15115;DHT22;7658;51.456;7.622;2023-08-07T11:22:17;16.40;99.90
15115;DHT22;7658;51.456;7.622;2023-08-07T11:24:43;16.30;99.90
15115;DHT22;7658;51.456;7.622;2023-08-07T11:27:08;16.40;99.90
15115;DHT22;7658;51.456;7.622;2023-08-07T11:29:34;16.40;99.90
15115;DHT22;7658;51.456;7.622;2023-08-07T11:32:00;16.60;99.90
15115;DHT22;7658;51.456;7.622;2023-08-07T11:34:26;16.70;99.90
15115;DHT22;7658;51.456;7.622;2023-08-07T11:36:51;16.80;99.90
15115;DHT22;7658;51.456;7.622;2023-08-07T11:39:19;17.00;99.90
15115;DHT22;7658;51.456;7.622;2023-08-07T11:41:46;17.10;99.90
15115;DHT22;7658;51.456;7.622;2023-08-07T11:44:12;17.40;99.90
15115;DHT22;7658;51.456;7.622;2023-08-07T11:46:38;17.30;99.90
15115;DHT22;7658;51.456;7.622;2023-08-07T11:49:04;17.30;99.90
15115;DHT22;7658;51.456;7.622;2023-08-07T11:51:30;17.30;99.90
15115;DHT22;7658;51.456;7.622;2023-08-07T11:53:56;17.70;99.90
15115;DHT22;7658;51.456;7.622;2023-08-07T11:56:24;17.80;99.90
15115;DHT22;7658;51.456;7.622;2023-08-07T11:58:51;18.00;99.90
15115;DHT22;7658;51.456;7.622;2023-08-07T12:01:20;18.10;99.90
15115;DHT22;7658;51.456;7.622;2023-08-07T12:06:33;18.40;99.90
15115;DHT22;7658;51.456;7.622;2023-08-07T12:09:01;18.20;99.90
15115;DHT22;7658;51.456;7.622;2023-08-07T12:11:29;17.80;99.90
15115;DHT22;7658;51.456;7.622;2023-08-07T12:13:55;17.70;99.90
15115;DHT22;7658;51.456;7.622;2023-08-07T12:16:21;17.40;99.90
15115;DHT22;7658;51.456;7.622;2023-08-07T12:18:49;17.60;99.90
15115;DHT22;7658;51.456;7.622;2023-08-07T12:21:17;17.70;99.90
15115;DHT22;7658;51.456;7.622;2023-08-07T12:23:45;17.90;99.90
15115;DHT22;7658;51.456;7.622;2023-08-07T12:26:13;18.10;62.50
15115;DHT22;7658;51.456;7.622;2023-08-07T12:28:39;18.00;1.00
15115;DHT22;7658;51.456;7.622;2023-08-07T12:31:05;17.90;2.90
15115;DHT22;7658;51.456;7.622;2023-08-07T12:33:32;18.00;1.00
15115;DHT22;7658;51.456;7.622;2023-08-07T12:35:59;18.40;18.80
15115;DHT22;7658;51.456;7.622;2023-08-07T12:38:25;18.60;1.00
15115;DHT22;7658;51.456;7.622;2023-08-07T12:40:50;18.90;1.00
15115;DHT22;7658;51.456;7.622;2023-08-07T12:43:16;18.70;99.90
15115;DHT22;7658;51.456;7.622;2023-08-07T12:45:42;18.90;99.90
15115;DHT22;7658;51.456;7.622;2023-08-07T12:48:08;18.80;99.90
15115;DHT22;7658;51.456;7.622;2023-08-07T12:50:35;18.80;1.00
15115;DHT22;7658;51.456;7.622;2023-08-07T12:53:00;18.80;1.00
15115;DHT22;7658;51.456;7.622;2023-08-07T12:55:27;18.60;1.00
15115;DHT22;7658;51.456;7.622;2023-08-07T12:57:54;18.40;99.90
15115;DHT22;7658;51.456;7.622;2023-08-07T13:00:20;18.40;1.00
15115;DHT22;7658;51.456;7.622;2023-08-07T13:02:48;18.70;99.90
15115;DHT22;7658;51.456;7.622;2023-08-07T13:05:14;19.00;99.90
15115;DHT22;7658;51.456;7.622;2023-08-07T13:07:41;19.20;99.90
15115;DHT22;7658;51.456;7.622;2023-08-07T13:10:09;19.00;99.90
15115;DHT22;7658;51.456;7.622;2023-08-07T13:12:36;18.80;1.00
15115;DHT22;7658;51.456;7.622;2023-08-07T13:15:03;18.70;11.60
15115;DHT22;7658;51.456;7.622;2023-08-07T13:17:31;19.00;99.90
15115;DHT22;7658;51.456;7.622;2023-08-07T13:19:58;19.30;1.00
15115;DHT22;7658;51.456;7.622;2023-08-07T13:22:25;19.10;1.00
15115;DHT22;7658;51.456;7.622;2023-08-07T13:24:50;18.80;1.00
15115;DHT22;7658;51.456;7.622;2023-08-07T13:27:16;18.70;1.00
15115;DHT22;7658;51.456;7.622;2023-08-07T13:29:43;18.80;99.90
15115;DHT22;7658;51.456;7.622;2023-08-07T13:32:09;19.30;99.90
15115;DHT22;7658;51.456;7.622;2023-08-07T13:34:36;19.10;99.90
15115;DHT22;7658;51.456;7.622;2023-08-07T13:37:05;18.90;99.90
15115;DHT22;7658;51.456;7.622;2023-08-07T13:39:33;18.70;99.90
15115;DHT22;7658;51.456;7.622;2023-08-07T13:41:59;18.40;99.90
15115;DHT22;7658;51.456;7.622;2023-08-07T13:44:28;18.50;99.90
15115;DHT22;7658;51.456;7.622;2023-08-07T13:46:54;18.50;1.00
15115;DHT22;7658;51.456;7.622;2023-08-07T13:49:21;18.50;1.00
15115;DHT22;7658;51.456;7.622;2023-08-07T13:51:49;18.80;99.90
15115;DHT22;7658;51.456;7.622;2023-08-07T13:54:15;18.80;99.90
15115;DHT22;7658;51.456;7.622;2023-08-07T13:56:40;18.80;1.00
15115;DHT22;7658;51.456;7.622;2023-08-07T13:59:06;18.70;1.00
15115;DHT22;7658;51.456;7.622;2023-08-07T14:01:33;18.80;99.90
15115;DHT22;7658;51.456;7.622;2023-08-07T14:04:01;18.70;1.00
15115;DHT22;7658;51.456;7.622;2023-08-07T14:06:27;18.70;99.90
15115;DHT22;7658;51.456;7.622;2023-08-07T14:08:52;18.50;99.90
15115;DHT22;7658;51.456;7.622;2023-08-07T14:11:18;18.40;99.90
15115;DHT22;7658;51.456;7.622;2023-08-07T14:13:45;18.30;1.00
15115;DHT22;7658;51.456;7.622;2023-08-07T14:16:12;18.70;99.90
15115;DHT22;7658;51.456;7.622;2023-08-07T14:18:38;18.80;99.90
15115;DHT22;7658;51.456;7.622;2023-08-07T14:21:04;18.50;1.00
15115;DHT22;7658;51.456;7.622;2023-08-07T14:23:31;18.20;1.00
15115;DHT22;7658;51.456;7.622;2023-08-07T14:25:57;17.70;99.90
15115;DHT22;7658;51.456;7.622;2023-08-07T14:28:23;16.90;99.90
15115;DHT22;7658;51.456;7.622;2023-08-07T14:30:48;16.40;99.90
15115;DHT22;7658;51.456;7.622;2023-08-07T14:33:14;16.20;99.90
15115;DHT22;7658;51.456;7.622;2023-08-07T14:35:40;16.00;99.90
15115;DHT22;7658;51.456;7.622;2023-08-07T14:38:06;15.90;99.90
15115;DHT22;7658;51.456;7.622;2023-08-07T14:40:32;15.70;99.90
15115;DHT22;7658;51.456;7.622;2023-08-07T14:42:58;15.60;99.90
15115;DHT22;7658;51.456;7.622;2023-08-07T14:45:23;15.60;99.90
15115;DHT22;7658;51.456;7.622;2023-08-07T14:47:50;15.70;99.90
15115;DHT22;7658;51.456;7.622;2023-08-07T14:50:16;15.80;99.90
15115;DHT22;7658;51.456;7.622;2023-08-07T14:52:44;15.90;99.90
15115;DHT22;7658;51.456;7.622;2023-08-07T14:55:10;16.10;99.90
15115;DHT22;7658;51.456;7.622;2023-08-07T14:57:36;16.50;99.90
15115;DHT22;7658;51.456;7.622;2023-08-07T15:00:02;17.00;99.90
15115;DHT22;7658;51.456;7.622;2023-08-07T15:02:29;17.70;99.90
15115;DHT22;7658;51.456;7.622;2023-08-07T15:04:55;18.40;99.90
15115;DHT22;7658;51.456;7.622;2023-08-07T15:07:21;18.30;99.90
15115;DHT22;7658;51.456;7.622;2023-08-07T15:09:47;18.10;99.90
15115;DHT22;7658;51.456;7.622;2023-08-07T15:12:16;17.90;99.90
15115;DHT22;7658;51.456;7.622;2023-08-07T15:14:42;17.70;99.90
15115;DHT22;7658;51.456;7.622;2023-08-07T15:17:08;17.40;99.90
15115;DHT22;7658;51.456;7.622;2023-08-07T15:19:33;17.30;99.90
15115;DHT22;7658;51.456;7.622;2023-08-07T15:21:59;17.20;99.90
15115;DHT22;7658;51.456;7.622;2023-08-07T15:24:25;17.10;99.90
15115;DHT22;7658;51.456;7.622;2023-08-07T15:26:51;17.10;99.90
15115;DHT22;7658;51.456;7.622;2023-08-07T15:29:17;17.10;99.90
15115;DHT22;7658;51.456;7.622;2023-08-07T15:31:43;17.30;99.90
15115;DHT22;7658;51.456;7.622;2023-08-07T15:34:09;18.00;99.90
15115;DHT22;7658;51.456;7.622;2023-08-07T15:36:34;18.10;99.90
15115;DHT22;7658;51.456;7.622;2023-08-07T15:39:00;18.20;57.70
15115;DHT22;7658;51.456;7.622;2023-08-07T15:41:27;18.00;56.90
15115;DHT22;7658;51.456;7.622;2023-08-07T15:43:53;18.10;22.10
15115;DHT22;7658;51.456;7.622;2023-08-07T15:46:19;18.50;1.00